Bugt, China
Current Conditions -  °F | °C
As of 8:00 PM on Monday 26 Jan 2015 (Local Time) from ZYTX Reporting Station
Clear Clear  
Wind Chill:   Ceiling: Unl
Heat Index: 14°   Visibility: 6mi
Dew Point: -6°   Wind: 7mph
Humidity: 41%   Direction: 20°NNE
Pressure: 30.48"   Gusts: NA
Location:  42.33°N, 120.7°E
Report Text: ZYTX 261200Z 02003MPS CAVOK M10/M21 Q1032 NOSIG
Loading
Personal Weather Stations






























Interactive Weather Map New forecast layout! Learn more

10-Day Weather Forecast

Advertisements
Track Severe Weather on mobile